createdAt,value
2023-03-23T15:57:58.675Z,85.03
2023-03-23T16:00:28.028Z,82.36
2023-03-23T16:03:05.249Z,83.44
2023-03-23T16:05:33.407Z,85.31
2023-03-23T16:08:00.915Z,84.09
2023-03-23T16:10:28.990Z,84.24
2023-03-23T16:12:56.273Z,85.05
2023-03-23T16:15:23.352Z,85.58
2023-03-23T16:17:50.608Z,84.98
2023-03-23T16:20:20.500Z,85.66
2023-03-23T16:22:48.745Z,87.24
2023-03-23T16:25:16.065Z,85.22
2023-03-23T16:27:43.462Z,85.08
2023-03-23T16:30:16.112Z,83.66
2023-03-23T16:35:10.253Z,82.05
2023-03-23T16:37:37.417Z,82.32
2023-03-23T16:40:05.950Z,82.25
2023-03-23T16:42:33.048Z,82.71
2023-03-23T16:45:00.175Z,81.72
2023-03-23T16:47:27.411Z,80.77
2023-03-23T16:49:54.694Z,80.24
2023-03-23T16:52:21.674Z,82.20
2023-03-23T16:54:48.691Z,82.48
2023-03-23T16:57:16.527Z,82.41
2023-03-23T16:59:43.975Z,81.87
2023-03-23T17:02:12.459Z,84.03
2023-03-23T17:04:46.487Z,82.84
2023-03-23T17:07:14.337Z,84.04
2023-03-23T17:09:42.660Z,84.76
2023-03-23T17:12:09.850Z,84.38
2023-03-23T17:14:37.056Z,83.81
2023-03-23T17:17:04.153Z,85.37
2023-03-23T17:19:31.654Z,85.80
2023-03-23T17:21:59.977Z,86.38
2023-03-23T17:24:27.320Z,86.04
2023-03-23T17:26:55.242Z,86.81
2023-03-23T17:29:25.226Z,87.82
2023-03-23T17:31:52.650Z,88.28
2023-03-23T17:34:19.868Z,88.02
2023-03-23T17:36:47.023Z,89.48
2023-03-23T17:39:14.007Z,89.79
2023-03-23T17:41:41.002Z,90.13
2023-03-23T17:44:08.204Z,90.23
2023-03-23T17:46:35.393Z,90.57
2023-03-23T17:49:02.555Z,90.21
2023-03-23T17:51:29.668Z,91.83
2023-03-23T17:53:57.324Z,91.48
2023-03-23T17:56:24.724Z,92.27
2023-03-23T17:58:51.757Z,92.21
2023-03-23T18:01:18.818Z,92.45
2023-03-23T18:03:46.236Z,92.23
2023-03-23T18:06:13.424Z,92.88
2023-03-23T18:08:40.588Z,93.05
2023-03-23T18:11:08.845Z,93.21
2023-03-23T18:13:37.781Z,93.19
2023-03-23T18:16:06.087Z,93.25
2023-03-23T18:18:33.589Z,92.45
2023-03-23T18:21:10.607Z,93.40
2023-03-23T18:23:46.150Z,94.09
2023-03-23T18:26:21.818Z,93.72
2023-03-23T18:28:51.124Z,92.53
2023-03-23T18:31:19.897Z,93.04
2023-03-23T18:33:49.425Z,93.49
2023-03-23T18:36:19.267Z,94.40
2023-03-23T18:38:47.142Z,93.69
2023-03-23T18:41:15.066Z,93.91
2023-03-23T18:43:42.545Z,94.22
2023-03-23T18:46:09.977Z,94.14
2023-03-23T18:48:37.510Z,94.59
2023-03-23T18:51:04.762Z,94.71
2023-03-23T18:53:31.973Z,95.12
2023-03-23T18:56:14.120Z,94.86
2023-03-23T18:58:41.387Z,95.57
2023-03-23T19:01:12.376Z,95.57
2023-03-23T19:03:40.349Z,95.24
2023-03-23T19:06:23.524Z,94.93
2023-03-23T19:08:52.111Z,94.97
2023-03-23T19:11:20.569Z,95.14
2023-03-23T19:14:00.382Z,94.40
2023-03-23T19:16:35.446Z,95.37
2023-03-23T19:19:04.551Z,94.47
2023-03-23T19:21:32.601Z,94.45
2023-03-23T19:24:01.466Z,94.58
2023-03-23T19:26:37.679Z,94.78
2023-03-23T19:31:38.420Z,94.47
2023-03-23T19:34:06.123Z,94.14
2023-03-23T19:36:33.261Z,94.53
2023-03-23T19:39:02.668Z,94.72
2023-03-23T19:41:31.505Z,94.58
2023-03-23T19:43:59.427Z,95.35
2023-03-23T19:46:30.227Z,94.79
2023-03-23T19:48:59.078Z,95.23
2023-03-23T19:51:27.584Z,95.58
2023-03-23T19:53:57.262Z,95.34
2023-03-23T19:56:25.331Z,95.79
2023-03-23T19:58:52.563Z,96.98
2023-03-23T20:01:19.819Z,95.82
2023-03-23T20:03:47.461Z,95.87
2023-03-23T20:06:15.357Z,96.56
2023-03-23T20:08:45.488Z,96.74
2023-03-23T20:11:15.320Z,96.52
2023-03-23T20:13:43.193Z,97.29
2023-03-23T20:16:10.457Z,96.79
2023-03-23T20:18:38.394Z,95.92
2023-03-23T20:21:11.863Z,96.13
2023-03-23T20:23:41.105Z,95.60
2023-03-23T20:26:14.718Z,96.35
2023-03-23T20:28:42.701Z,94.58
2023-03-23T20:31:23.510Z,95.05
2023-03-23T20:34:02.686Z,94.83
2023-03-23T20:36:36.425Z,94.50
2023-03-23T20:39:08.011Z,95.08
2023-03-23T20:41:38.728Z,94.97
2023-03-23T20:44:09.147Z,95.46
2023-03-23T20:46:36.470Z,95.42
2023-03-23T20:49:05.908Z,94.72
2023-03-23T20:51:33.490Z,95.06
2023-03-23T20:54:01.951Z,95.54
2023-03-23T20:56:29.415Z,95.08
2023-03-23T20:58:56.626Z,94.70
2023-03-23T21:01:24.448Z,94.83
2023-03-23T21:03:53.925Z,94.70
2023-03-23T21:06:21.268Z,94.13
2023-03-23T21:08:48.801Z,93.83
2023-03-23T21:11:21.303Z,94.39
2023-03-23T21:13:49.010Z,93.30
2023-03-23T21:16:18.078Z,93.42
2023-03-23T21:18:45.969Z,93.46
2023-03-23T21:21:14.851Z,92.87
2023-03-23T21:23:46.696Z,93.26
2023-03-23T21:26:16.748Z,94.07
2023-03-23T21:28:45.511Z,93.75
2023-03-23T21:31:14.917Z,93.78
2023-03-23T21:33:41.997Z,93.97
2023-03-23T21:36:09.837Z,96.15
2023-03-23T21:38:38.173Z,96.39
2023-03-23T21:41:11.733Z,96.90
2023-03-23T21:43:40.533Z,98.70
2023-03-23T21:46:09.365Z,99.49
2023-03-23T21:48:38.451Z,100.00
2023-03-23T21:51:11.104Z,100.00
2023-03-23T21:53:38.133Z,100.00
2023-03-23T21:56:07.085Z,100.00
2023-03-23T21:58:34.251Z,100.00
2023-03-23T22:01:02.145Z,100.00
2023-03-23T22:03:35.098Z,100.00
2023-03-23T22:06:12.059Z,100.00
2023-03-23T22:08:41.091Z,100.00
2023-03-23T22:11:26.221Z,100.00
2023-03-23T22:13:55.405Z,100.00
2023-03-23T22:16:23.440Z,100.00
2023-03-23T22:18:52.303Z,100.00
2023-03-23T22:21:22.077Z,100.00
2023-03-23T22:23:49.257Z,100.00
2023-03-23T22:26:16.568Z,100.00
2023-03-23T22:28:46.134Z,100.00
2023-03-23T22:31:19.073Z,100.00
2023-03-23T22:33:47.586Z,100.00
2023-03-23T22:36:16.110Z,100.00
2023-03-23T22:38:45.449Z,100.00
2023-03-23T22:41:19.119Z,100.00
2023-03-23T22:43:48.056Z,100.00
2023-03-23T22:46:15.751Z,100.00
2023-03-23T22:48:43.797Z,100.00
2023-03-23T22:51:12.287Z,100.00
2023-03-23T22:53:39.869Z,100.00
2023-03-23T22:56:07.572Z,100.00
2023-03-23T22:58:35.267Z,100.00
2023-03-23T23:01:06.957Z,100.00
2023-03-23T23:03:35.247Z,100.00
2023-03-23T23:06:02.804Z,100.00
2023-03-23T23:08:30.658Z,100.00
2023-03-23T23:11:00.023Z,100.00
2023-03-23T23:13:28.080Z,100.00
2023-03-23T23:15:58.156Z,100.00
2023-03-23T23:18:26.922Z,100.00
2023-03-23T23:20:56.199Z,100.00
2023-03-23T23:23:25.423Z,100.00
2023-03-23T23:25:53.110Z,100.00
2023-03-23T23:28:21.378Z,100.00
2023-03-23T23:30:49.179Z,100.00
2023-03-23T23:33:16.679Z,100.00
2023-03-23T23:35:43.656Z,100.00
2023-03-23T23:38:12.357Z,100.00
2023-03-23T23:40:41.185Z,100.00
2023-03-23T23:43:11.080Z,100.00
2023-03-23T23:45:38.699Z,100.00
2023-03-23T23:48:06.049Z,100.00
2023-03-23T23:50:33.722Z,100.00
2023-03-23T23:53:00.859Z,100.00
2023-03-23T23:55:28.515Z,100.00
2023-03-23T23:57:56.044Z,100.00
